sensor_id;sensor_type;location;lat;lon;timestamp;pressure;altitude;pressure_sealevel;temperature;humidity
80966;BME280;70426;37.772;-122.432;2023-06-10T00:02:12;100948.35;;;10.34;57.51
80966;BME280;70426;37.772;-122.432;2023-06-10T00:04:37;100950.77;;;11.57;55.09
80966;BME280;70426;37.772;-122.432;2023-06-10T00:07:03;100953.42;;;11.04;55.26
80966;BME280;70426;37.772;-122.432;2023-06-10T00:09:28;100945.66;;;10.60;56.91
80966;BME280;70426;37.772;-122.432;2023-06-10T00:11:53;100950.02;;;9.98;58.40
80966;BME280;70426;37.772;-122.432;2023-06-10T00:14:18;100945.47;;;10.09;57.88
80966;BME280;70426;37.772;-122.432;2023-06-10T00:16:43;100942.33;;;9.75;58.55
80966;BME280;70426;37.772;-122.432;2023-06-10T00:19:08;100943.36;;;10.04;59.05
80966;BME280;70426;37.772;-122.432;2023-06-10T00:21:35;100945.46;;;10.91;56.89
80966;BME280;70426;37.772;-122.432;2023-06-10T00:23:58;100949.42;;;11.11;55.54
80966;BME280;70426;37.772;-122.432;2023-06-10T00:26:24;100948.79;;;11.41;55.34
80966;BME280;70426;37.772;-122.432;2023-06-10T00:28:49;100957.19;;;11.46;54.80
80966;BME280;70426;37.772;-122.432;2023-06-10T00:31:13;100949.90;;;11.06;56.04
80966;BME280;70426;37.772;-122.432;2023-06-10T00:33:39;100948.76;;;11.48;53.82
80966;BME280;70426;37.772;-122.432;2023-06-10T00:36:05;100947.92;;;13.43;50.18
80966;BME280;70426;37.772;-122.432;2023-06-10T00:38:31;100940.92;;;11.92;52.53
80966;BME280;70426;37.772;-122.432;2023-06-10T00:40:56;100937.69;;;11.92;52.50
80966;BME280;70426;37.772;-122.432;2023-06-10T00:43:22;100951.02;;;10.72;54.53
80966;BME280;70426;37.772;-122.432;2023-06-10T00:45:48;100935.63;;;9.92;57.67
80966;BME280;70426;37.772;-122.432;2023-06-10T00:48:13;100940.18;;;10.98;57.24
80966;BME280;70426;37.772;-122.432;2023-06-10T00:50:38;100939.74;;;11.80;55.15
80966;BME280;70426;37.772;-122.432;2023-06-10T00:53:03;100939.43;;;10.79;56.66
80966;BME280;70426;37.772;-122.432;2023-06-10T00:55:28;100946.43;;;11.97;55.12
80966;BME280;70426;37.772;-122.432;2023-06-10T00:57:54;100938.16;;;10.93;57.85
80966;BME280;70426;37.772;-122.432;2023-06-10T01:00:18;100938.27;;;9.55;62.29
80966;BME280;70426;37.772;-122.432;2023-06-10T01:02:43;100930.93;;;9.72;61.78
80966;BME280;70426;37.772;-122.432;2023-06-10T01:05:09;100938.43;;;11.02;58.69
80966;BME280;70426;37.772;-122.432;2023-06-10T01:07:36;100928.51;;;10.69;58.50
80966;BME280;70426;37.772;-122.432;2023-06-10T01:10:03;100924.16;;;10.57;58.41
80966;BME280;70426;37.772;-122.432;2023-06-10T01:12:30;100920.50;;;10.68;57.34
80966;BME280;70426;37.772;-122.432;2023-06-10T01:14:48;100922.33;;;9.96;59.43
80966;BME280;70426;37.772;-122.432;2023-06-10T01:17:14;100927.43;;;11.77;55.47
80966;BME280;70426;37.772;-122.432;2023-06-10T01:19:38;100921.35;;;9.48;59.13
80966;BME280;70426;37.772;-122.432;2023-06-10T01:22:03;100918.16;;;9.42;60.46
80966;BME280;70426;37.772;-122.432;2023-06-10T01:24:28;100917.53;;;9.85;61.31
80966;BME280;70426;37.772;-122.432;2023-06-10T01:26:55;100921.52;;;9.79;60.60
80966;BME280;70426;37.772;-122.432;2023-06-10T01:29:21;100922.74;;;8.97;62.45
80966;BME280;70426;37.772;-122.432;2023-06-10T01:31:49;100923.55;;;9.23;61.93
80966;BME280;70426;37.772;-122.432;2023-06-10T01:34:14;100921.44;;;9.27;62.56
80966;BME280;70426;37.772;-122.432;2023-06-10T01:36:35;100919.68;;;9.42;61.91
80966;BME280;70426;37.772;-122.432;2023-06-10T01:39:00;100913.63;;;9.18;63.77
80966;BME280;70426;37.772;-122.432;2023-06-10T01:41:25;100915.66;;;8.96;65.84
80966;BME280;70426;37.772;-122.432;2023-06-10T01:43:50;100917.68;;;9.03;65.51
80966;BME280;70426;37.772;-122.432;2023-06-10T01:46:16;100915.56;;;9.07;64.95
80966;BME280;70426;37.772;-122.432;2023-06-10T01:48:42;100912.75;;;8.40;65.20
80966;BME280;70426;37.772;-122.432;2023-06-10T01:51:06;100915.51;;;8.03;68.81
80966;BME280;70426;37.772;-122.432;2023-06-10T01:53:31;100907.99;;;7.93;68.54
80966;BME280;70426;37.772;-122.432;2023-06-10T01:55:55;100907.40;;;7.84;71.68
80966;BME280;70426;37.772;-122.432;2023-06-10T01:58:21;100904.01;;;8.53;70.52
80966;BME280;70426;37.772;-122.432;2023-06-10T02:00:45;100905.21;;;8.16;71.46
80966;BME280;70426;37.772;-122.432;2023-06-10T02:03:11;100908.55;;;8.19;70.39
80966;BME280;70426;37.772;-122.432;2023-06-10T02:05:36;100916.53;;;7.97;72.33
80966;BME280;70426;37.772;-122.432;2023-06-10T02:08:01;100912.01;;;7.66;74.08
80966;BME280;70426;37.772;-122.432;2023-06-10T02:10:26;100912.50;;;7.73;73.18
80966;BME280;70426;37.772;-122.432;2023-06-10T02:12:51;100917.55;;;7.77;74.36
80966;BME280;70426;37.772;-122.432;2023-06-10T02:15:16;100910.34;;;8.61;71.16
80966;BME280;70426;37.772;-122.432;2023-06-10T02:17:41;100918.35;;;8.01;72.58
80966;BME280;70426;37.772;-122.432;2023-06-10T02:20:07;100918.09;;;7.87;71.96
80966;BME280;70426;37.772;-122.432;2023-06-10T02:22:31;100916.11;;;8.10;71.10
80966;BME280;70426;37.772;-122.432;2023-06-10T02:24:56;100916.36;;;8.39;71.24
80966;BME280;70426;37.772;-122.432;2023-06-10T02:27:21;100915.56;;;7.95;71.68
80966;BME280;70426;37.772;-122.432;2023-06-10T02:29:46;100915.00;;;7.85;73.26
80966;BME280;70426;37.772;-122.432;2023-06-10T02:32:11;100920.87;;;7.70;73.64
80966;BME280;70426;37.772;-122.432;2023-06-10T02:34:36;100911.96;;;8.32;71.97
80966;BME280;70426;37.772;-122.432;2023-06-10T02:37:01;100913.77;;;7.62;75.20
80966;BME280;70426;37.772;-122.432;2023-06-10T02:39:27;100913.98;;;7.58;76.38
80966;BME280;70426;37.772;-122.432;2023-06-10T02:41:51;100916.60;;;7.46;77.47
80966;BME280;70426;37.772;-122.432;2023-06-10T02:44:17;100922.72;;;7.59;77.70
80966;BME280;70426;37.772;-122.432;2023-06-10T02:46:42;100926.85;;;7.70;78.35
80966;BME280;70426;37.772;-122.432;2023-06-10T02:49:07;100921.92;;;8.02;77.22
80966;BME280;70426;37.772;-122.432;2023-06-10T02:51:32;100917.85;;;8.21;75.09
80966;BME280;70426;37.772;-122.432;2023-06-10T02:53:57;100923.20;;;7.43;76.47
80966;BME280;70426;37.772;-122.432;2023-06-10T02:56:22;100928.72;;;7.54;76.22
80966;BME280;70426;37.772;-122.432;2023-06-10T02:58:48;100921.05;;;7.58;76.93
80966;BME280;70426;37.772;-122.432;2023-06-10T03:01:13;100922.17;;;7.35;76.01
80966;BME280;70426;37.772;-122.432;2023-06-10T03:03:37;100918.70;;;7.46;74.40
80966;BME280;70426;37.772;-122.432;2023-06-10T03:06:03;100924.29;;;7.33;73.76
80966;BME280;70426;37.772;-122.432;2023-06-10T03:08:28;100923.17;;;7.28;74.88
80966;BME280;70426;37.772;-122.432;2023-06-10T03:10:53;100930.20;;;7.21;75.13
80966;BME280;70426;37.772;-122.432;2023-06-10T03:13:18;100928.79;;;7.80;73.38
80966;BME280;70426;37.772;-122.432;2023-06-10T03:15:43;100930.52;;;6.83;75.31
80966;BME280;70426;37.772;-122.432;2023-06-10T03:18:08;100924.41;;;7.46;75.53
80966;BME280;70426;37.772;-122.432;2023-06-10T03:20:33;100922.03;;;7.52;75.33
80966;BME280;70426;37.772;-122.432;2023-06-10T03:22:58;100923.70;;;7.61;76.07
80966;BME280;70426;37.772;-122.432;2023-06-10T03:25:23;100924.66;;;7.19;75.24
80966;BME280;70426;37.772;-122.432;2023-06-10T03:27:48;100925.43;;;7.43;76.07
80966;BME280;70426;37.772;-122.432;2023-06-10T03:30:14;100924.52;;;7.38;75.94
80966;BME280;70426;37.772;-122.432;2023-06-10T03:32:38;100921.61;;;7.10;75.67
80966;BME280;70426;37.772;-122.432;2023-06-10T03:35:04;100924.68;;;7.20;75.66
80966;BME280;70426;37.772;-122.432;2023-06-10T03:37:28;100921.78;;;6.93;77.72
80966;BME280;70426;37.772;-122.432;2023-06-10T03:39:53;100919.03;;;7.44;76.05
80966;BME280;70426;37.772;-122.432;2023-06-10T03:42:18;100921.60;;;7.54;75.34
80966;BME280;70426;37.772;-122.432;2023-06-10T03:44:43;100925.74;;;7.40;75.40
80966;BME280;70426;37.772;-122.432;2023-06-10T03:47:08;100922.64;;;6.87;78.25
80966;BME280;70426;37.772;-122.432;2023-06-10T03:49:33;100921.60;;;7.20;77.25
80966;BME280;70426;37.772;-122.432;2023-06-10T03:51:58;100921.02;;;7.30;78.18
80966;BME280;70426;37.772;-122.432;2023-06-10T03:54:24;100920.28;;;7.20;78.24
80966;BME280;70426;37.772;-122.432;2023-06-10T03:56:48;100918.60;;;7.54;76.22
80966;BME280;70426;37.772;-122.432;2023-06-10T03:59:13;100917.21;;;7.03;78.46
80966;BME280;70426;37.772;-122.432;2023-06-10T04:01:38;100925.01;;;6.73;80.50
80966;BME280;70426;37.772;-122.432;2023-06-10T04:04:04;100933.34;;;7.50;78.36
80966;BME280;70426;37.772;-122.432;2023-06-10T04:06:29;100936.78;;;7.94;76.88
80966;BME280;70426;37.772;-122.432;2023-06-10T04:08:54;100931.26;;;7.77;76.88
80966;BME280;70426;37.772;-122.432;2023-06-10T04:11:19;100934.34;;;7.66;77.14
80966;BME280;70426;37.772;-122.432;2023-06-10T04:13:44;100939.05;;;7.40;78.51
80966;BME280;70426;37.772;-122.432;2023-06-10T04:16:09;100941.42;;;7.55;77.45
80966;BME280;70426;37.772;-122.432;2023-06-10T04:18:34;100938.52;;;6.47;80.58
80966;BME280;70426;37.772;-122.432;2023-06-10T04:20:59;100935.40;;;6.94;79.17
80966;BME280;70426;37.772;-122.432;2023-06-10T04:23:24;100937.86;;;7.80;77.57
80966;BME280;70426;37.772;-122.432;2023-06-10T04:25:49;100931.72;;;8.03;75.18
80966;BME280;70426;37.772;-122.432;2023-06-10T04:28:14;100935.19;;;7.13;76.12
80966;BME280;70426;37.772;-122.432;2023-06-10T04:30:39;100940.28;;;7.04;77.37
80966;BME280;70426;37.772;-122.432;2023-06-10T04:33:04;100939.29;;;7.17;77.40
80966;BME280;70426;37.772;-122.432;2023-06-10T04:35:29;100944.31;;;7.65;76.82
80966;BME280;70426;37.772;-122.432;2023-06-10T04:37:54;100940.31;;;6.85;77.90
80966;BME280;70426;37.772;-122.432;2023-06-10T04:40:19;100941.36;;;7.50;76.79
80966;BME280;70426;37.772;-122.432;2023-06-10T04:42:44;100940.99;;;7.40;77.02
80966;BME280;70426;37.772;-122.432;2023-06-10T04:45:10;100945.21;;;8.00;76.05
80966;BME280;70426;37.772;-122.432;2023-06-10T04:47:34;100947.35;;;7.44;78.13
80966;BME280;70426;37.772;-122.432;2023-06-10T04:49:59;100952.32;;;7.92;75.05
80966;BME280;70426;37.772;-122.432;2023-06-10T04:52:24;100953.82;;;7.25;76.83
80966;BME280;70426;37.772;-122.432;2023-06-10T04:54:50;100947.70;;;7.21;75.76
80966;BME280;70426;37.772;-122.432;2023-06-10T04:57:14;100943.22;;;6.50;79.44
80966;BME280;70426;37.772;-122.432;2023-06-10T04:59:40;100945.97;;;7.47;77.14
80966;BME280;70426;37.772;-122.432;2023-06-10T05:02:05;100949.85;;;7.36;76.48
80966;BME280;70426;37.772;-122.432;2023-06-10T05:04:30;100948.26;;;7.33;78.25
80966;BME280;70426;37.772;-122.432;2023-06-10T05:06:55;100950.29;;;6.76;79.21
80966;BME280;70426;37.772;-122.432;2023-06-10T05:09:20;100949.09;;;6.75;79.34
80966;BME280;70426;37.772;-122.432;2023-06-10T05:11:45;100949.92;;;6.94;79.57
80966;BME280;70426;37.772;-122.432;2023-06-10T05:14:10;100949.71;;;6.99;78.69
80966;BME280;70426;37.772;-122.432;2023-06-10T05:16:35;100951.90;;;6.74;79.99
80966;BME280;70426;37.772;-122.432;2023-06-10T05:19:00;100953.37;;;6.79;79.36
80966;BME280;70426;37.772;-122.432;2023-06-10T05:21:25;100960.60;;;7.17;78.67
80966;BME280;70426;37.772;-122.432;2023-06-10T05:23:50;100960.50;;;7.50;77.19
80966;BME280;70426;37.772;-122.432;2023-06-10T05:26:15;100961.01;;;6.85;79.15
80966;BME280;70426;37.772;-122.432;2023-06-10T05:28:40;100965.70;;;7.19;79.51
80966;BME280;70426;37.772;-122.432;2023-06-10T05:31:05;100960.05;;;6.85;81.55
80966;BME280;70426;37.772;-122.432;2023-06-10T05:33:30;100964.17;;;6.60;82.39
80966;BME280;70426;37.772;-122.432;2023-06-10T05:35:55;100957.78;;;7.01;80.49
80966;BME280;70426;37.772;-122.432;2023-06-10T05:38:20;100958.20;;;6.44;81.78
80966;BME280;70426;37.772;-122.432;2023-06-10T05:40:46;100950.67;;;7.00;81.94
80966;BME280;70426;37.772;-122.432;2023-06-10T05:43:10;100946.20;;;6.66;80.45
80966;BME280;70426;37.772;-122.432;2023-06-10T05:45:36;100946.88;;;6.56;81.52
80966;BME280;70426;37.772;-122.432;2023-06-10T05:48:00;100947.86;;;6.81;80.75
80966;BME280;70426;37.772;-122.432;2023-06-10T05:50:25;100942.64;;;6.67;80.13
80966;BME280;70426;37.772;-122.432;2023-06-10T05:52:50;100938.43;;;6.94;81.39
80966;BME280;70426;37.772;-122.432;2023-06-10T05:55:16;100933.61;;;6.73;80.56
80966;BME280;70426;37.772;-122.432;2023-06-10T05:57:42;100934.78;;;7.21;78.67
80966;BME280;70426;37.772;-122.432;2023-06-10T06:00:07;100932.54;;;6.51;78.48
80966;BME280;70426;37.772;-122.432;2023-06-10T06:02:31;100934.88;;;7.27;79.44
80966;BME280;70426;37.772;-122.432;2023-06-10T06:04:56;100928.80;;;6.70;80.70
80966;BME280;70426;37.772;-122.432;2023-06-10T06:07:21;100925.85;;;6.67;81.58
80966;BME280;70426;37.772;-122.432;2023-06-10T06:09:47;100923.85;;;6.54;79.96
80966;BME280;70426;37.772;-122.432;2023-06-10T06:12:11;100924.41;;;6.54;81.95
80966;BME280;70426;37.772;-122.432;2023-06-10T06:14:38;100930.74;;;7.07;79.10
80966;BME280;70426;37.772;-122.432;2023-06-10T06:17:01;100923.07;;;6.52;81.28
80966;BME280;70426;37.772;-122.432;2023-06-10T06:19:26;100925.43;;;6.35;81.71
80966;BME280;70426;37.772;-122.432;2023-06-10T06:21:51;100928.11;;;6.45;81.18
80966;BME280;70426;37.772;-122.432;2023-06-10T06:24:16;100928.09;;;6.60;81.54
80966;BME280;70426;37.772;-122.432;2023-06-10T06:26:41;100927.26;;;6.50;80.06
80966;BME280;70426;37.772;-122.432;2023-06-10T06:29:06;100929.82;;;6.78;79.92
80966;BME280;70426;37.772;-122.432;2023-06-10T06:31:31;100928.98;;;6.93;78.48
80966;BME280;70426;37.772;-122.432;2023-06-10T06:33:56;100923.14;;;6.74;80.14
80966;BME280;70426;37.772;-122.432;2023-06-10T06:36:21;100929.16;;;6.49;81.74
80966;BME280;70426;37.772;-122.432;2023-06-10T06:38:46;100927.58;;;6.58;81.77
80966;BME280;70426;37.772;-122.432;2023-06-10T06:41:11;100927.96;;;6.73;82.97
80966;BME280;70426;37.772;-122.432;2023-06-10T06:43:37;100931.12;;;7.10;80.73
80966;BME280;70426;37.772;-122.432;2023-06-10T06:46:01;100928.43;;;6.47;83.21
80966;BME280;70426;37.772;-122.432;2023-06-10T06:48:26;100934.35;;;6.33;82.45
80966;BME280;70426;37.772;-122.432;2023-06-10T06:50:51;100928.73;;;6.09;84.21
80966;BME280;70426;37.772;-122.432;2023-06-10T06:53:16;100919.40;;;6.35;81.94
80966;BME280;70426;37.772;-122.432;2023-06-10T06:55:42;100914.53;;;6.41;80.72
80966;BME280;70426;37.772;-122.432;2023-06-10T06:58:06;100912.16;;;6.94;79.99
80966;BME280;70426;37.772;-122.432;2023-06-10T07:00:32;100908.24;;;6.29;81.56
80966;BME280;70426;37.772;-122.432;2023-06-10T07:02:56;100906.27;;;6.18;81.49
80966;BME280;70426;37.772;-122.432;2023-06-10T07:05:21;100912.01;;;6.50;80.05
80966;BME280;70426;37.772;-122.432;2023-06-10T07:07:47;100906.19;;;5.74;83.30
80966;BME280;70426;37.772;-122.432;2023-06-10T07:10:12;100904.85;;;6.42;81.59
80966;BME280;70426;37.772;-122.432;2023-06-10T07:12:37;100902.48;;;5.64;82.94
80966;BME280;70426;37.772;-122.432;2023-06-10T07:15:02;100900.13;;;5.95;82.94
80966;BME280;70426;37.772;-122.432;2023-06-10T07:17:27;100902.65;;;5.88;83.92
80966;BME280;70426;37.772;-122.432;2023-06-10T07:19:52;100903.22;;;6.16;82.47
80966;BME280;70426;37.772;-122.432;2023-06-10T07:22:17;100902.00;;;6.47;82.53
80966;BME280;70426;37.772;-122.432;2023-06-10T07:24:42;100900.84;;;6.85;79.99
80966;BME280;70426;37.772;-122.432;2023-06-10T07:27:07;100892.71;;;6.36;80.88
80966;BME280;70426;37.772;-122.432;2023-06-10T07:29:32;100889.36;;;6.77;79.19
80966;BME280;70426;37.772;-122.432;2023-06-10T07:31:57;100892.86;;;7.29;80.17
80966;BME280;70426;37.772;-122.432;2023-06-10T07:34:22;100894.39;;;7.32;78.15
80966;BME280;70426;37.772;-122.432;2023-06-10T07:36:47;100895.05;;;6.89;80.86
80966;BME280;70426;37.772;-122.432;2023-06-10T07:39:12;100893.31;;;6.36;82.88
80966;BME280;70426;37.772;-122.432;2023-06-10T07:41:37;100892.38;;;6.30;83.28
80966;BME280;70426;37.772;-122.432;2023-06-10T07:44:03;100888.03;;;6.57;82.50
80966;BME280;70426;37.772;-122.432;2023-06-10T07:46:27;100886.07;;;6.66;82.56
80966;BME280;70426;37.772;-122.432;2023-06-10T07:48:54;100887.55;;;6.38;81.49
80966;BME280;70426;37.772;-122.432;2023-06-10T07:51:17;100891.56;;;6.47;80.92
80966;BME280;70426;37.772;-122.432;2023-06-10T07:53:42;100886.23;;;5.91;82.36
80966;BME280;70426;37.772;-122.432;2023-06-10T07:56:08;100880.54;;;5.48;84.06
80966;BME280;70426;37.772;-122.432;2023-06-10T07:58:32;100876.89;;;6.27;82.95
80966;BME280;70426;37.772;-122.432;2023-06-10T08:00:57;100875.26;;;5.78;82.13
80966;BME280;70426;37.772;-122.432;2023-06-10T08:03:22;100880.90;;;6.63;81.89
80966;BME280;70426;37.772;-122.432;2023-06-10T08:05:48;100878.59;;;6.09;82.17
80966;BME280;70426;37.772;-122.432;2023-06-10T08:08:14;100882.67;;;6.27;81.70
80966;BME280;70426;37.772;-122.432;2023-06-10T08:10:38;100882.05;;;6.23;82.06
80966;BME280;70426;37.772;-122.432;2023-06-10T08:13:03;100883.11;;;6.90;81.20
80966;BME280;70426;37.772;-122.432;2023-06-10T08:15:28;100885.95;;;6.89;81.14
80966;BME280;70426;37.772;-122.432;2023-06-10T08:17:53;100885.53;;;6.78;80.29
80966;BME280;70426;37.772;-122.432;2023-06-10T08:20:18;100875.49;;;5.63;83.00
80966;BME280;70426;37.772;-122.432;2023-06-10T08:22:43;100872.46;;;6.53;83.06
80966;BME280;70426;37.772;-122.432;2023-06-10T08:25:09;100872.57;;;6.73;82.63
80966;BME280;70426;37.772;-122.432;2023-06-10T08:27:34;100873.92;;;7.38;79.03
80966;BME280;70426;37.772;-122.432;2023-06-10T08:29:59;100882.14;;;6.54;81.78
80966;BME280;70426;37.772;-122.432;2023-06-10T08:32:24;100881.17;;;6.39;83.65
80966;BME280;70426;37.772;-122.432;2023-06-10T08:34:49;100880.74;;;6.24;83.38
80966;BME280;70426;37.772;-122.432;2023-06-10T08:37:14;100884.24;;;6.75;82.28
80966;BME280;70426;37.772;-122.432;2023-06-10T08:39:39;100881.58;;;7.19;80.63
80966;BME280;70426;37.772;-122.432;2023-06-10T08:42:11;100882.66;;;6.45;82.20
80966;BME280;70426;37.772;-122.432;2023-06-10T08:44:30;100874.41;;;6.24;83.84
80966;BME280;70426;37.772;-122.432;2023-06-10T08:46:56;100862.17;;;6.09;83.15
80966;BME280;70426;37.772;-122.432;2023-06-10T08:49:23;100853.56;;;5.82;84.35
80966;BME280;70426;37.772;-122.432;2023-06-10T08:51:45;100853.67;;;6.08;84.38
80966;BME280;70426;37.772;-122.432;2023-06-10T08:54:15;100862.50;;;6.21;84.72
80966;BME280;70426;37.772;-122.432;2023-06-10T08:56:39;100849.97;;;6.38;84.29
80966;BME280;70426;37.772;-122.432;2023-06-10T08:59:01;100844.85;;;6.54;85.05
80966;BME280;70426;37.772;-122.432;2023-06-10T09:01:26;100841.16;;;6.42;84.01
80966;BME280;70426;37.772;-122.432;2023-06-10T09:03:51;100842.05;;;6.06;86.15
80966;BME280;70426;37.772;-122.432;2023-06-10T09:06:16;100845.92;;;6.63;84.75
80966;BME280;70426;37.772;-122.432;2023-06-10T09:08:41;100843.24;;;6.13;85.63
80966;BME280;70426;37.772;-122.432;2023-06-10T09:11:06;100839.46;;;6.35;85.78
80966;BME280;70426;37.772;-122.432;2023-06-10T09:13:31;100843.56;;;6.60;83.50
80966;BME280;70426;37.772;-122.432;2023-06-10T09:15:56;100840.74;;;6.36;84.86
80966;BME280;70426;37.772;-122.432;2023-06-10T09:18:21;100840.45;;;6.78;84.24
80966;BME280;70426;37.772;-122.432;2023-06-10T09:20:46;100839.01;;;6.24;84.77
80966;BME280;70426;37.772;-122.432;2023-06-10T09:23:11;100838.40;;;6.26;86.87
80966;BME280;70426;37.772;-122.432;2023-06-10T09:25:37;100836.59;;;6.96;83.82
80966;BME280;70426;37.772;-122.432;2023-06-10T09:28:01;100824.39;;;6.82;81.79
80966;BME280;70426;37.772;-122.432;2023-06-10T09:30:28;100817.34;;;6.30;84.14
80966;BME280;70426;37.772;-122.432;2023-06-10T09:32:52;100816.26;;;5.92;84.41
80966;BME280;70426;37.772;-122.432;2023-06-10T09:35:16;100818.92;;;5.97;86.28
80966;BME280;70426;37.772;-122.432;2023-06-10T09:37:41;100820.70;;;6.17;86.44
80966;BME280;70426;37.772;-122.432;2023-06-10T09:40:08;100818.20;;;6.42;86.42
80966;BME280;70426;37.772;-122.432;2023-06-10T09:42:34;100811.86;;;5.99;87.37
80966;BME280;70426;37.772;-122.432;2023-06-10T09:44:57;100812.97;;;6.60;83.92
80966;BME280;70426;37.772;-122.432;2023-06-10T09:47:21;100820.58;;;6.56;85.59
80966;BME280;70426;37.772;-122.432;2023-06-10T09:49:46;100820.66;;;6.33;86.04
80966;BME280;70426;37.772;-122.432;2023-06-10T09:52:11;100819.51;;;5.99;88.63
80966;BME280;70426;37.772;-122.432;2023-06-10T09:54:37;100817.49;;;6.13;85.87
80966;BME280;70426;37.772;-122.432;2023-06-10T09:57:07;100817.19;;;6.43;84.70
80966;BME280;70426;37.772;-122.432;2023-06-10T09:59:29;100806.75;;;6.08;86.61
80966;BME280;70426;37.772;-122.432;2023-06-10T10:01:55;100801.58;;;5.58;87.55
80966;BME280;70426;37.772;-122.432;2023-06-10T10:04:23;100809.27;;;6.04;85.60
80966;BME280;70426;37.772;-122.432;2023-06-10T10:06:42;100805.91;;;5.77;86.99
80966;BME280;70426;37.772;-122.432;2023-06-10T10:09:07;100808.90;;;5.97;87.47
80966;BME280;70426;37.772;-122.432;2023-06-10T10:11:33;100807.50;;;5.70;88.66
80966;BME280;70426;37.772;-122.432;2023-06-10T10:13:57;100806.33;;;5.52;89.44
80966;BME280;70426;37.772;-122.432;2023-06-10T10:16:26;100798.04;;;5.66;87.98
80966;BME280;70426;37.772;-122.432;2023-06-10T10:18:52;100788.86;;;5.75;87.18
80966;BME280;70426;37.772;-122.432;2023-06-10T10:21:13;100779.67;;;5.70;88.06
80966;BME280;70426;37.772;-122.432;2023-06-10T10:23:41;100783.45;;;5.55;88.86
80966;BME280;70426;37.772;-122.432;2023-06-10T10:26:05;100788.70;;;5.52;91.15
80966;BME280;70426;37.772;-122.432;2023-06-10T10:28:34;100791.41;;;5.83;89.14
80966;BME280;70426;37.772;-122.432;2023-06-10T10:30:54;100798.53;;;6.09;88.05
80966;BME280;70426;37.772;-122.432;2023-06-10T10:33:20;100799.14;;;5.90;88.71
80966;BME280;70426;37.772;-122.432;2023-06-10T10:35:43;100792.31;;;5.93;88.53
80966;BME280;70426;37.772;-122.432;2023-06-10T10:38:07;100786.28;;;5.67;87.75
80966;BME280;70426;37.772;-122.432;2023-06-10T10:40:33;100791.27;;;5.58;87.93
80966;BME280;70426;37.772;-122.432;2023-06-10T10:42:59;100799.65;;;6.47;87.98
80966;BME280;70426;37.772;-122.432;2023-06-10T10:45:23;100800.39;;;5.19;88.90
80966;BME280;70426;37.772;-122.432;2023-06-10T10:47:52;100794.71;;;6.41;87.45
80966;BME280;70426;37.772;-122.432;2023-06-10T10:50:15;100785.68;;;6.33;84.79
80966;BME280;70426;37.772;-122.432;2023-06-10T10:52:48;100784.50;;;6.04;85.63
80966;BME280;70426;37.772;-122.432;2023-06-10T10:55:09;100789.08;;;6.00;86.71
80966;BME280;70426;37.772;-122.432;2023-06-10T10:57:31;100784.63;;;6.00;86.28
80966;BME280;70426;37.772;-122.432;2023-06-10T10:59:55;100785.02;;;5.32;88.07
80966;BME280;70426;37.772;-122.432;2023-06-10T11:02:18;100784.88;;;5.37;89.29
80966;BME280;70426;37.772;-122.432;2023-06-10T11:04:46;100787.16;;;5.77;87.93
80966;BME280;70426;37.772;-122.432;2023-06-10T11:07:08;100784.80;;;5.75;88.62
80966;BME280;70426;37.772;-122.432;2023-06-10T11:09:33;100786.56;;;6.46;86.86
80966;BME280;70426;37.772;-122.432;2023-06-10T11:11:58;100783.67;;;5.94;88.22
80966;BME280;70426;37.772;-122.432;2023-06-10T11:14:27;100786.21;;;6.59;85.45
80966;BME280;70426;37.772;-122.432;2023-06-10T11:16:49;100776.70;;;6.12;84.83
80966;BME280;70426;37.772;-122.432;2023-06-10T11:24:11;100773.94;;;6.46;86.36
80966;BME280;70426;37.772;-122.432;2023-06-10T11:26:32;100768.80;;;6.23;88.85
80966;BME280;70426;37.772;-122.432;2023-06-10T11:29:05;100765.40;;;5.78;90.53
80966;BME280;70426;37.772;-122.432;2023-06-10T11:31:19;100764.53;;;5.88;91.88
80966;BME280;70426;37.772;-122.432;2023-06-10T11:33:44;100767.68;;;6.44;88.31
80966;BME280;70426;37.772;-122.432;2023-06-10T11:36:09;100764.02;;;6.11;85.82
80966;BME280;70426;37.772;-122.432;2023-06-10T11:38:34;100762.27;;;7.60;81.86
80966;BME280;70426;37.772;-122.432;2023-06-10T11:40:59;100771.30;;;6.00;85.91
80966;BME280;70426;37.772;-122.432;2023-06-10T11:43:24;100770.35;;;5.80;88.48
80966;BME280;70426;37.772;-122.432;2023-06-10T11:45:54;100768.08;;;5.89;89.72
80966;BME280;70426;37.772;-122.432;2023-06-10T11:48:14;100755.88;;;6.25;87.55
80966;BME280;70426;37.772;-122.432;2023-06-10T11:50:39;100750.08;;;5.85;89.62
80966;BME280;70426;37.772;-122.432;2023-06-10T11:53:05;100745.74;;;5.38;90.82
80966;BME280;70426;37.772;-122.432;2023-06-10T11:55:41;100750.82;;;6.43;89.60
80966;BME280;70426;37.772;-122.432;2023-06-10T11:57:54;100743.42;;;5.94;86.70
80966;BME280;70426;37.772;-122.432;2023-06-10T12:00:20;100744.47;;;5.94;87.72
80966;BME280;70426;37.772;-122.432;2023-06-10T12:02:44;100743.51;;;5.99;89.47
80966;BME280;70426;37.772;-122.432;2023-06-10T12:05:11;100736.13;;;5.72;89.15
80966;BME280;70426;37.772;-122.432;2023-06-10T12:07:34;100742.33;;;5.61;90.94
80966;BME280;70426;37.772;-122.432;2023-06-10T12:10:00;100747.27;;;6.04;90.51
80966;BME280;70426;37.772;-122.432;2023-06-10T12:12:25;100749.66;;;5.95;91.81
80966;BME280;70426;37.772;-122.432;2023-06-10T12:14:52;100747.08;;;5.62;92.64
80966;BME280;70426;37.772;-122.432;2023-06-10T12:17:15;100747.40;;;6.17;89.51
80966;BME280;70426;37.772;-122.432;2023-06-10T12:19:40;100755.36;;;5.95;90.55
80966;BME280;70426;37.772;-122.432;2023-06-10T12:22:05;100757.71;;;5.68;92.15
80966;BME280;70426;37.772;-122.432;2023-06-10T12:24:30;100757.56;;;5.97;89.82